East TN State Univ, Tennessee
Current Conditions -  °F | °C
As of 12:53 PM on Friday 21 Nov 2014 (Local Time) from KTRI Reporting Station
Clear Clear  
Wind Chill: 41°   Ceiling: Unl
Heat Index: 41°   Visibility: 10mi
Dew Point: 16°   Wind: 3mph
Humidity: 36%   Direction: 230°SW
Pressure: 30.45"   Gusts: NA
Location:  36.3658°N, 82.4151°W
Report Text: KTRI 211753Z 23003KT 10SM CLR 05/M09 A3045 RMK AO2 SLP308 T00501089 10056 21044 58001
Loading
Personal Weather Stations






























Interactive Weather Map New forecast layout! Learn more

10-Day Weather Forecast

Advertisements
Track Severe Weather on mobile